Time;durP1;ratioP1;P1;durP2;ratioP2;P2;SDS_P1;SDS_P2;PMS_P1;PMS_P2;Temp;Humidity;BMP_temperature;BMP_pressure;BME280_temperature;BME280_humidity;BME280_pressure;Samples;Min_cycle;Max_cycle;Signal;HPM_P1;HPM_P2
2023/01/12 05:10:41;;;;;;;50.10;25.52;;;;;;;1.40;100.00;100783.97;5562180;32;175849;-84
2023/01/12 05:13:44;;;;;;;45.17;23.73;;;;;;;1.38;100.00;100792.72;5557385;32;33964;-85
2023/01/12 05:16:47;;;;;;;48.78;23.98;;;;;;;1.39;100.00;100781.38;5552344;32;33851;-85
2023/01/12 05:19:50;;;;;;;41.40;22.30;;;;;;;1.43;100.00;100790.94;5549742;32;33655;-85
2023/01/12 05:22:53;;;;;;;47.42;23.83;;;;;;;1.45;100.00;100789.19;5549544;32;34108;-85
2023/01/12 05:26:01;;;;;;;40.35;22.62;;;;;;;1.47;100.00;100788.28;5547929;32;32056;-85
2023/01/12 05:29:03;;;;;;;41.37;22.10;;;;;;;1.54;100.00;100790.88;5549266;32;34494;-85
2023/01/12 05:32:06;;;;;;;39.60;20.95;;;;;;;1.58;100.00;100782.16;5549052;32;34238;-85
2023/01/12 05:35:09;;;;;;;39.50;21.45;;;;;;;1.60;100.00;100802.19;5548522;32;34807;-85
2023/01/12 05:38:12;;;;;;;39.92;20.80;;;;;;;1.58;100.00;100800.44;5548998;32;34195;-85
2023/01/12 05:41:15;;;;;;;37.95;20.50;;;;;;;1.62;100.00;100791.72;5549337;32;33589;-85
2023/01/12 05:44:17;;;;;;;37.13;20.85;;;;;;;1.71;100.00;100806.50;5549214;32;34130;-85
2023/01/12 05:47:20;;;;;;;37.92;20.73;;;;;;;1.74;100.00;100804.72;5548930;32;33810;-85
2023/01/12 05:50:23;;;;;;;39.15;21.85;;;;;;;1.80;100.00;100802.94;5550145;32;33798;-85
2023/01/12 05:53:42;;;;;;;38.72;21.35;;;;;;;1.78;100.00;100802.06;5549466;32;34154;-86
2023/01/12 05:56:45;;;;;;;35.83;20.58;;;;;;;1.78;100.00;100795.09;5555339;32;32240;-86
2023/01/12 05:59:51;;;;;;;40.60;21.60;;;;;;;1.84;100.00;100796.78;5556858;32;34053;-85
2023/01/12 06:02:54;;;;;;;37.10;21.17;;;;;;;1.79;100.00;100794.22;5557020;32;34905;-85
2023/01/12 06:05:57;;;;;;;37.95;20.45;;;;;;;1.80;100.00;100800.34;5556301;32;35285;-85
2023/01/12 06:09:00;;;;;;;36.78;19.55;;;;;;;1.89;100.00;100795.03;5553008;32;33575;-85
2023/01/12 06:15:25;;;;;;;36.78;18.62;;;;;;;2.03;100.00;100794.94;5547585;32;34298;-85
2023/01/12 06:18:28;;;;;;;35.80;19.65;;;;;;;2.23;100.00;100792.16;5548599;32;33891;-85
2023/01/12 06:21:32;;;;;;;36.08;19.95;;;;;;;2.28;100.00;100792.13;5537534;32;34042;-85
2023/01/12 06:24:35;;;;;;;33.15;19.17;;;;;;;2.20;100.00;100804.41;5533655;32;34052;-85
2023/01/12 06:27:37;;;;;;;35.67;20.95;;;;;;;2.07;100.00;100809.75;5533284;32;33919;-85
2023/01/12 06:30:40;;;;;;;36.97;21.08;;;;;;;2.12;100.00;100817.56;5527613;32;33284;-84
2023/01/12 06:33:43;;;;;;;37.85;21.75;;;;;;;2.06;100.00;100822.84;5534412;32;34256;-83
2023/01/12 06:36:46;;;;;;;35.15;19.83;;;;;;;2.09;100.00;100818.44;5536177;32;34294;-84
2023/01/12 06:39:50;;;;;;;35.80;20.60;;;;;;;2.21;100.00;100814.84;5534210;32;34390;-84
2023/01/12 06:42:53;;;;;;;32.40;18.33;;;;;;;2.33;100.00;100824.38;5524007;32;34345;-84
2023/01/12 06:45:55;;;;;;;35.97;19.62;;;;;;;2.47;100.00;100824.22;5532391;32;33823;-83
2023/01/12 06:48:58;;;;;;;33.63;18.92;;;;;;;2.38;100.00;100840.03;5523724;32;34767;-84
2023/01/12 06:52:01;;;;;;;26.10;14.57;;;;;;;2.60;100.00;100835.47;5527887;32;34237;-85
2023/01/12 06:55:04;;;;;;;26.58;14.40;;;;;;;2.78;100.00;100844.03;5525294;32;34098;-84
2023/01/12 06:58:07;;;;;;;24.12;14.80;;;;;;;2.83;100.00;100845.72;5518452;32;32624;-85
2023/01/12 07:01:12;;;;;;;24.67;14.90;;;;;;;2.78;100.00;100844.94;5519243;32;33871;-88
2023/01/12 07:04:15;;;;;;;24.73;14.48;;;;;;;2.70;100.00;100851.97;5523774;32;35114;-89
2023/01/12 07:07:19;;;;;;;25.52;13.90;;;;;;;2.76;100.00;100851.91;5531675;32;34132;-90
2023/01/12 07:10:22;;;;;;;29.50;15.98;;;;;;;2.80;100.00;100850.13;5519940;32;34856;-87
2023/01/12 07:13:25;;;;;;;28.50;15.15;;;;;;;2.71;100.00;100863.31;5528844;32;34521;-87
2023/01/12 07:16:28;;;;;;;30.73;15.95;;;;;;;2.74;100.00;100864.16;5529114;32;33851;-86
2023/01/12 07:19:31;;;;;;;37.85;22.17;;;;;;;2.76;100.00;100866.78;5527313;32;34316;-86
2023/01/12 07:22:34;;;;;;;30.20;16.08;;;;;;;2.92;100.00;100865.72;5544009;32;33714;-84
2023/01/12 07:25:37;;;;;;;39.53;22.67;;;;;;;2.90;100.00;100867.50;5541185;32;32767;-85
2023/01/12 07:28:41;;;;;;;48.15;28.52;;;;;;;2.78;100.00;100865.00;5536058;32;34129;-85
2023/01/12 07:31:47;;;;;;;52.42;31.17;;;;;;;2.88;100.00;100864.03;5532372;32;34598;-84
2023/01/12 07:34:50;;;;;;;52.72;30.55;;;;;;;2.83;100.00;100869.31;5527857;32;34463;-86
2023/01/12 07:37:53;;;;;;;53.67;29.87;;;;;;;2.80;100.00;100860.59;5533385;32;34100;-87
2023/01/12 07:41:00;;;;;;;51.72;30.45;;;;;;;2.99;100.00;100871.78;5534670;32;34808;-88
2023/01/12 07:44:03;;;;;;;52.22;28.85;;;;;;;3.10;100.00;100872.56;5515911;32;35356;-92
2023/01/12 07:47:06;;;;;;;42.60;26.42;;;;;;;3.16;100.00;100879.47;5516453;32;33891;-90
2023/01/12 07:50:10;;;;;;;39.90;23.62;;;;;;;3.29;100.00;100882.84;5518025;32;33810;-90
2023/01/12 07:53:19;;;;;;;35.60;20.05;;;;;;;3.40;100.00;100885.31;5530444;32;33724;-88
2023/01/12 07:56:22;;;;;;;31.50;17.20;;;;;;;3.44;100.00;100886.16;5530160;32;34030;-88
2023/01/12 07:59:26;;;;;;;28.77;16.08;;;;;;;3.62;100.00;100885.06;5534524;32;33900;-86
2023/01/12 08:02:29;;;;;;;29.65;16.55;;;;;;;3.72;100.00;100884.06;5543846;32;33738;-85
2023/01/12 08:05:33;;;;;;;27.23;15.52;;;;;;;3.63;100.00;100885.03;5548148;31;34110;-87
2023/01/12 08:08:35;;;;;;;26.05;15.63;;;;;;;3.78;100.00;100880.50;5535236;32;33619;-86
2023/01/12 08:11:38;;;;;;;29.02;15.63;;;;;;;3.85;100.00;100884.78;5524579;32;34403;-86
2023/01/12 08:14:41;;;;;;;32.63;17.25;;;;;;;4.09;100.00;100887.06;5541631;32;33660;-86
2023/01/12 08:17:59;;;;;;;37.75;17.48;;;;;;;4.13;100.00;100894.00;5522974;32;33813;-86
2023/01/12 08:21:08;;;;;;;34.30;19.00;;;;;;;4.03;100.00;100894.13;5530003;32;34326;-87
2023/01/12 08:24:17;;;;;;;30.27;18.83;;;;;;;3.92;100.00;100888.16;5526613;32;34363;-86
2023/01/12 08:27:23;;;;;;;32.50;19.15;;;;;;;4.21;100.00;100894.75;5521930;32;33664;-86
2023/01/12 08:30:27;;;;;;;32.15;18.00;;;;;;;4.51;100.00;100889.94;5547852;32;34285;-87
2023/01/12 08:33:30;;;;;;;33.00;19.25;;;;;;;4.89;100.00;100886.66;5525179;32;33873;-86
2023/01/12 08:36:34;;;;;;;34.88;18.48;;;;;;;5.09;100.00;100888.94;5529995;32;33962;-86
2023/01/12 08:39:38;;;;;;;30.52;18.90;;;;;;;5.29;100.00;100893.84;5543844;32;33829;-87
2023/01/12 08:42:42;;;;;;;31.20;18.15;;;;;;;5.48;100.00;100882.94;5518366;32;34483;-86
2023/01/12 08:45:45;;;;;;;32.10;17.92;;;;;;;5.26;100.00;100885.97;5524456;32;34080;-87
2023/01/12 08:48:47;;;;;;;29.90;18.27;;;;;;;5.16;100.00;100887.94;5532248;32;34364;-86
2023/01/12 08:51:50;;;;;;;30.55;18.00;;;;;;;5.57;100.00;100888.00;5528209;32;35394;-86
2023/01/12 08:54:54;;;;;;;26.08;17.15;;;;;;;5.73;100.00;100879.78;5534613;32;34823;-86
2023/01/12 08:57:57;;;;;;;30.70;18.42;;;;;;;5.77;100.00;100881.44;5535785;32;33745;-85
2023/01/12 09:01:10;;;;;;;28.30;16.52;;;;;;;5.74;100.00;100892.06;5533841;32;34233;-86
2023/01/12 09:04:13;;;;;;;27.90;16.08;;;;;;;5.76;100.00;100891.13;5515920;32;34139;-86
2023/01/12 09:07:16;;;;;;;32.60;15.07;;;;;;;5.97;100.00;100885.41;5525601;32;34309;-86
2023/01/12 09:10:18;;;;;;;24.95;15.88;;;;;;;5.50;100.00;100887.28;5533579;32;33593;-86
2023/01/12 09:13:21;;;;;;;25.02;15.07;;;;;;;5.68;100.00;100892.19;5537403;32;34457;-85
2023/01/12 09:16:26;;;;;;;26.50;13.93;;;;;;;6.13;100.00;100896.50;5531884;32;32247;-86
2023/01/12 09:19:29;;;;;;;27.65;14.63;;;;;;;6.02;100.00;100900.25;5531925;32;34767;-86
2023/01/12 09:22:31;;;;;;;24.95;14.18;;;;;;;5.51;100.00;100890.75;5527161;32;34079;-88
2023/01/12 09:25:35;;;;;;;26.80;14.05;;;;;;;5.82;100.00;100892.75;5533521;32;33854;-88
2023/01/12 09:28:38;;;;;;;24.75;14.48;;;;;;;5.58;100.00;100894.13;5528930;32;35344;-89
2023/01/12 09:31:43;;;;;;;26.17;14.05;;;;;;;5.72;100.00;100889.44;5552758;32;34214;-92
2023/01/12 09:34:47;;;;;;;28.08;14.73;;;;;;;5.68;100.00;100894.81;5568181;32;34234;-91
2023/01/12 09:37:51;;;;;;;28.42;13.35;;;;;;;6.30;100.00;100899.59;5546626;32;33711;-89
2023/01/12 09:40:59;;;;;;;30.23;15.05;;;;;;;5.89;100.00;100902.25;5544902;32;33847;-88
2023/01/12 09:47:46;;;;;;;27.00;13.98;;;;;;;6.44;100.00;100888.72;5537652;32;32691;-88
2023/01/12 09:51:04;;;;;;;26.90;14.18;;;;;;;7.04;100.00;100885.47;5565727;32;33710;-87
2023/01/12 09:54:09;;;;;;;27.50;14.27;;;;;;;7.80;100.00;100883.34;5541549;32;32772;-87
2023/01/12 09:57:53;;;;;;;29.42;14.35;;;;;;;8.05;100.00;100881.75;5529766;32;32586;-87
2023/01/12 10:01:00;;;;;;;26.23;13.85;;;;;;;8.53;100.00;100884.66;5541920;32;34731;-87
2023/01/12 10:04:04;;;;;;;26.25;13.65;;;;;;;9.13;100.00;100877.34;5548542;32;34705;-87
2023/01/12 10:07:13;;;;;;;26.92;15.13;;;;;;;9.27;100.00;100863.56;5553154;32;33773;-86
2023/01/12 10:10:16;;;;;;;29.75;14.45;;;;;;;8.88;100.00;100870.25;5547044;32;34734;-86
2023/01/12 10:13:20;;;;;;;24.48;13.85;;;;;;;8.49;100.00;100874.16;5559547;32;34191;-86
2023/01/12 10:16:33;;;;;;;26.77;15.55;;;;;;;8.34;100.00;100872.00;5541416;32;34062;-86
2023/01/12 10:19:44;;;;;;;30.62;15.07;;;;;;;6.97;100.00;100871.59;5563170;32;34005;-91
2023/01/12 10:22:55;;;;;;;28.60;15.35;;;;;;;6.77;100.00;100872.13;5543862;32;34328;-87
2023/01/12 10:26:06;;;;;;;30.88;16.02;;;;;;;6.60;100.00;100865.50;5540038;32;34294;-88
2023/01/12 10:29:11;;;;;;;27.95;14.68;;;;;;;6.82;100.00;100867.59;5551936;32;34275;-88
2023/01/12 10:32:14;;;;;;;28.27;15.80;;;;;;;7.21;100.00;100870.97;5530923;32;32741;-89
2023/01/12 10:35:20;;;;;;;31.48;15.70;;;;;;;6.78;100.00;100862.44;5566989;32;34551;-88
2023/01/12 10:38:33;;;;;;;23.60;14.32;;;;;;;7.69;100.00;100866.94;5562422;32;34192;-88
2023/01/12 10:41:36;;;;;;;24.25;14.73;;;;;;;7.92;100.00;100865.41;5561935;32;34151;-87
2023/01/12 10:44:40;;;;;;;26.73;16.08;;;;;;;7.81;100.00;100860.44;5544135;32;32695;-88
2023/01/12 10:47:45;;;;;;;25.15;15.05;;;;;;;8.03;100.00;100851.84;5542890;32;33510;-87
2023/01/12 10:51:03;;;;;;;23.73;14.52;;;;;;;8.34;100.00;100849.09;5553180;32;34926;-87
2023/01/12 10:54:10;;;;;;;24.95;14.85;;;;;;;8.00;100.00;100851.97;5536528;32;33059;-88
2023/01/12 10:57:22;;;;;;;23.00;14.32;;;;;;;7.69;100.00;100841.41;5553256;32;34377;-88
2023/01/12 11:00:27;;;;;;;23.58;14.20;;;;;;;7.35;100.00;100838.91;5557649;32;34046;-86
2023/01/12 11:03:32;;;;;;;24.58;14.48;;;;;;;7.03;100.00;100840.69;5564331;32;34969;-88
2023/01/12 11:06:41;;;;;;;27.42;14.23;;;;;;;7.22;100.00;100835.75;5551505;32;35263;-89
2023/01/12 11:09:44;;;;;;;23.87;13.95;;;;;;;7.10;100.00;100834.34;5549365;32;34966;-86
2023/01/12 11:13:00;;;;;;;25.88;15.60;;;;;;;6.86;100.00;100834.97;5544281;32;33970;-88
2023/01/12 11:16:16;;;;;;;25.88;13.52;;;;;;;6.56;100.00;100833.97;5531320;32;33821;-87
2023/01/12 11:19:42;;;;;;;21.05;13.88;;;;;;;6.95;100.00;100820.63;5528718;32;33043;-92
2023/01/12 11:22:47;;;;;;;24.45;14.57;;;;;;;6.90;100.00;100819.94;5547749;32;34307;-88
2023/01/12 11:25:52;;;;;;;28.62;15.25;;;;;;;6.79;100.00;100814.06;5552338;32;33901;-88
2023/01/12 11:29:00;;;;;;;26.50;15.38;;;;;;;6.92;100.00;100815.47;5553399;32;34974;-88
2023/01/12 11:32:17;;;;;;;25.12;15.07;;;;;;;6.98;100.00;100819.69;5545807;32;33908;-88
2023/01/12 11:35:39;;;;;;;25.60;15.52;;;;;;;6.43;100.00;100820.25;5529982;32;33459;-87
2023/01/12 11:38:50;;;;;;;26.73;15.52;;;;;;;6.45;100.00;100818.44;5559825;32;34542;-87
2023/01/12 11:45:56;;;;;;;26.90;14.48;;;;;;;6.12;100.00;100802.56;5543877;32;34434;-87
2023/01/12 11:49:41;;;;;;;27.42;14.87;;;;;;;6.24;100.00;100811.94;5547698;32;33719;-87
2023/01/12 11:52:44;;;;;;;24.08;14.48;;;;;;;6.50;100.00;100803.41;5505273;32;32577;-86
2023/01/12 11:56:17;;;;;;;24.90;14.45;;;;;;;7.36;100.00;100801.94;5553295;32;36162;-87
2023/01/12 11:59:59;;;;;;;25.30;15.15;;;;;;;8.19;100.00;100805.53;5551960;32;34343;-86
2023/01/12 12:03:08;;;;;;;27.92;15.55;;;;;;;7.05;100.00;100797.53;5532629;32;34047;-87
2023/01/12 12:06:27;;;;;;;24.37;15.50;;;;;;;6.66;100.00;100797.69;5544793;32;34957;-87
2023/01/12 12:09:29;;;;;;;25.02;14.48;;;;;;;6.53;100.00;100798.03;5548068;32;34126;-87
2023/01/12 12:12:46;;;;;;;24.30;14.87;;;;;;;6.43;100.00;100804.44;5553620;32;34074;-87
2023/01/12 12:16:17;;;;;;;24.30;14.50;;;;;;;6.45;100.00;100800.00;5533544;32;32838;-88
2023/01/12 12:19:44;;;;;;;22.30;14.35;;;;;;;6.69;100.00;100798.47;5530103;32;32567;-87
2023/01/12 12:23:14;;;;;;;23.98;14.75;;;;;;;6.80;100.00;100781.50;5547468;32;34101;-87
2023/01/12 12:26:26;;;;;;;25.02;16.05;;;;;;;6.96;100.00;100792.50;5523284;32;32807;-88
2023/01/12 12:30:01;;;;;;;24.17;15.38;;;;;;;6.80;100.00;100784.16;5545805;32;34163;-87
2023/01/12 12:33:40;;;;;;;26.83;15.98;;;;;;;6.60;100.00;100783.78;5551336;32;34588;-87
2023/01/12 12:36:55;;;;;;;28.17;15.80;;;;;;;6.71;100.00;100775.59;5517751;32;33573;-86
2023/01/12 12:40:10;;;;;;;28.55;17.33;;;;;;;6.64;100.00;100775.78;5542745;32;33949;-91
2023/01/12 12:46:57;;;;;;;29.98;16.77;;;;;;;6.45;100.00;100785.03;5550738;32;35131;-88
2023/01/12 12:50:02;;;;;;;27.33;16.33;;;;;;;6.40;100.00;100784.31;5553680;32;33673;-87
2023/01/12 12:53:35;;;;;;;25.08;15.00;;;;;;;6.42;100.00;100778.97;5549442;32;34502;-89
2023/01/12 12:56:38;;;;;;;27.33;15.70;;;;;;;6.74;100.00;100780.78;5552053;32;33275;-90
2023/01/12 12:59:53;;;;;;;29.63;16.58;;;;;;;6.55;100.00;100779.53;5551461;32;34285;-89
2023/01/12 13:02:58;;;;;;;27.50;16.10;;;;;;;6.41;100.00;100775.50;5565604;26;34313;-89
2023/01/12 13:06:31;;;;;;;30.10;16.77;;;;;;;6.57;100.00;100775.09;5547361;32;34642;-89
2023/01/12 13:09:36;;;;;;;29.83;16.15;;;;;;;6.46;100.00;100770.97;5523482;32;33918;-90
2023/01/12 13:20:18;;;;;;;29.70;15.05;;;;;;;6.40;100.00;100765.00;5505600;32;20093;-89
2023/01/12 13:23:46;;;;;;;29.48;14.75;;;;;;;6.39;100.00;100771.19;5504465;32;33939;-88
2023/01/12 13:26:52;;;;;;;24.40;15.18;;;;;;;6.37;100.00;100763.31;5509113;32;32737;-89
2023/01/12 13:30:18;;;;;;;25.27;15.45;;;;;;;6.33;100.00;100772.19;5507145;32;33687;-89
2023/01/12 13:49:28;;;;;;;27.65;17.10;;;;;;;6.20;100.00;100776.91;5341575;30;20162;-89
2023/01/12 13:52:39;;;;;;;27.42;16.58;;;;;;;6.18;100.00;100782.22;5520617;32;33200;-88
2023/01/12 13:56:00;;;;;;;27.98;17.12;;;;;;;6.06;100.00;100780.75;5499617;32;33118;-88
2023/01/12 13:59:06;;;;;;;28.27;17.62;;;;;;;6.00;100.00;100786.16;5525685;32;34443;-88
2023/01/12 14:02:17;;;;;;;31.45;17.55;;;;;;;6.00;100.00;100780.00;5500906;32;33004;-88
2023/01/12 14:05:20;;;;;;;;;;;;;;;6.03;100.00;100785.25;5509387;32;33842;-88
2023/01/12 14:08:47;;;;;;;29.40;16.80;;;;;;;5.98;100.00;100785.28;5494474;32;34615;-88
2023/01/12 14:11:53;;;;;;;25.98;16.70;;;;;;;5.98;100.00;100784.44;5514234;32;34321;-88
2023/01/12 14:18:55;;;;;;;27.98;18.08;;;;;;;6.03;100.00;100785.25;5505120;32;34330;-88
2023/01/12 14:22:02;;;;;;;30.48;17.73;;;;;;;6.02;100.00;100780.81;5493958;32;34563;-88
2023/01/12 14:25:21;;;;;;;25.65;16.40;;;;;;;5.94;100.00;100779.25;5492664;32;33986;-88
2023/01/12 14:28:24;;;;;;;26.73;17.50;;;;;;;6.00;100.00;100775.63;5480670;32;32599;-88
2023/01/12 14:31:38;;;;;;;29.60;16.67;;;;;;;5.94;100.00;100767.84;5537569;26;33981;-86
2023/01/12 14:34:51;;;;;;;25.15;16.52;;;;;;;5.90;100.00;100767.03;5455696;32;32659;-86
2023/01/12 14:37:58;;;;;;;30.00;16.23;;;;;;;5.88;100.00;100768.00;5458951;32;34909;-87
2023/01/12 14:48:31;;;;;;;26.65;14.87;;;;;;;5.68;100.00;100758.78;5452145;32;33565;-86
2023/01/12 14:51:35;;;;;;;26.77;15.73;;;;;;;5.65;100.00;100756.25;5429341;32;34216;-87
2023/01/12 14:54:37;;;;;;;24.77;14.57;;;;;;;5.47;100.00;100749.59;5445824;32;33054;-87
2023/01/12 14:57:41;;;;;;;27.48;15.07;;;;;;;5.37;100.00;100748.94;5457719;32;33230;-87
2023/01/12 15:00:46;;;;;;;30.40;15.70;;;;;;;5.36;100.00;100747.22;5436305;32;32769;-86
2023/01/12 15:03:53;;;;;;;28.25;14.55;;;;;;;5.51;100.00;100746.03;5452553;32;34151;-87
2023/01/12 15:07:03;;;;;;;26.83;14.55;;;;;;;5.38;100.00;100750.72;5453265;32;34030;-87
2023/01/12 15:10:09;;;;;;;27.98;14.55;;;;;;;5.29;100.00;100746.50;5448528;32;35007;-87
2023/01/12 15:13:21;;;;;;;28.10;14.45;;;;;;;5.21;100.00;100748.41;5443830;32;34099;-87
2023/01/12 15:26:32;;;;;;;24.80;13.45;;;;;;;4.91;100.00;100753.41;5436907;32;33602;-86
2023/01/12 15:29:35;;;;;;;28.83;13.68;;;;;;;4.82;100.00;100763.22;5436300;32;32497;-86
2023/01/12 15:32:40;;;;;;;23.08;12.88;;;;;;;4.76;100.00;100759.84;5440896;32;32870;-88
2023/01/12 15:35:49;;;;;;;;;;;;;;;4.66;100.00;100752.16;5455572;32;34532;-87
2023/01/12 15:38:52;;;;;;;22.37;12.45;;;;;;;4.58;100.00;100761.94;5446624;32;34313;-87
2023/01/12 15:45:28;;;;;;;21.58;13.65;;;;;;;4.46;100.00;100760.38;5445312;32;34448;-90
2023/01/12 15:48:31;;;;;;;25.73;13.82;;;;;;;4.36;100.00;100764.94;5447080;32;32945;-88
2023/01/12 15:51:34;;;;;;;23.98;13.65;;;;;;;4.27;100.00;100760.72;5445685;32;34040;-87
2023/01/12 15:54:37;;;;;;;23.90;14.07;;;;;;;4.24;100.00;100763.41;5439121;32;34092;-87
2023/01/12 15:57:40;;;;;;;22.23;13.25;;;;;;;4.21;100.00;100771.31;5439876;32;33867;-87
2023/01/12 16:00:43;;;;;;;23.87;14.50;;;;;;;4.18;100.00;100772.25;5429295;32;33161;-87
2023/01/12 16:03:46;;;;;;;23.98;14.63;;;;;;;4.07;100.00;100773.31;5455201;32;35342;-86
2023/01/12 16:07:09;;;;;;;25.05;14.55;;;;;;;3.93;100.00;100771.78;5462485;32;34430;-86
2023/01/12 16:10:14;;;;;;;23.98;14.93;;;;;;;3.83;100.00;100773.66;5443083;32;34583;-87
2023/01/12 16:13:17;;;;;;;22.45;14.27;;;;;;;3.71;100.00;100776.47;5446850;32;32567;-87
2023/01/12 16:16:20;;;;;;;24.85;15.15;;;;;;;3.63;100.00;100776.63;5445729;32;34342;-87
2023/01/12 16:19:23;;;;;;;28.38;15.43;;;;;;;3.52;100.00;100781.12;5464099;32;35404;-87
2023/01/12 16:22:26;;;;;;;33.80;16.85;;;;;;;3.49;100.00;100775.06;5468097;32;34418;-87
2023/01/12 16:25:29;;;;;;;30.40;16.77;;;;;;;3.64;100.00;100779.19;5459712;32;34617;-87
2023/01/12 16:28:32;;;;;;;27.05;16.10;;;;;;;3.64;100.00;100775.72;5449236;32;32991;-87
